AirNav   Duncan Aviation - Near you to keep you flying
 
 495 users online  

10WI Buds Landing Airport
Pound, Wisconsin, USA

GOING TO POUND?


FAA INFORMATION EFFECTIVE 26 JANUARY 2023

Location

FAA Identifier: 10WI
Lat/Long: 45-06-56.9330N 088-11-22.3680W
45-06.948883N 088-11.372800W
45.1158147,-88.1895467
(estimated)
Elevation: 850 ft. / 259 m (estimated)
Variation: 02W (1985)
From city: 7 miles WSW of POUND, WI
Time zone: UTC -6 (UTC -5 during Daylight Saving Time)
Zip code: 54161

Airport Operations

Airport use: Private use. Permission required prior to landing
Activation date: 11/1988
Control tower: no
ARTCC: MINNEAPOLIS CENTER
FSS: GREEN BAY FLIGHT SERVICE STATION
Attendance: UNATNDD
Wind indicator: yes
Segmented circle: no

Airport Communications

WX AWOS-3 at OCQ (19 nm SE): 120.925 (920-835-1599)

Nearby radio navigation aids

VOR radial/distance  VOR name  Freq  Var
GRBr359/33.6GREEN BAY VORTAC115.5001E

Airport Services

Runway Information

Runway 18/36

Dimensions: 2100 x 200 ft. / 640 x 61 m
Surface: turf
Operational restrictions: RY 18/36 TEMPORARILY CLSD.
RUNWAY 18  RUNWAY 36
Traffic pattern: rightleft
Obstructions: 50 ft. trees, 500 ft. from runwaynone

Airport Ownership and Management from official FAA records

Ownership: Privately-owned
Owner: ROBERT J. WARDECKE
8910 HWY 64
POUND, WI 54161
Phone 414-897-3823
Manager: ROBERT J. WARDECKE
8910 HWY 64
POUND, WI 54161
Phone 414-897-3823

Airport Operational Statistics

Aircraft based on the field: 1
Single engine airplanes: 1
    

Additional Remarks

TREES NE OF ARPT MAY CAUSE SOME WIND SHEAR WHEN LANDING SOUTH.
RY 18/36 & RAMP NOT ALWAYS PLOWED IN WINTER.
ARPT NOT USEABLE DURG VERY WET PERIODS.
FOR CD CTC MINNEAPOLIS ARTCC AT 651-463-5588.

Instrument Procedures

There are no published instrument procedures at 10WI.

Some nearby airports with instrument procedures:

KOCQ - Oconto/J Douglas Bake Municipal Airport (19 nm SE)
KMNM - Menominee Regional Airport (23 nm E)
KEZS - Shawano Municipal Airport (25 nm SW)
KSUE - Door County Cherryland Airport (36 nm SE)
KCLI - Clintonville Municipal Airport (38 nm SW)
 
Loc | Ops | Rwys | IFR | FBO | Links
Com | Nav | Svcs | Stats | Notes
Area around 10WI (Buds Landing Airport)
 
Road maps at: MapQuest Bing Google
 
Aerial photo
No photo
 
Sectional chart

 
Airport distance calculator
Flying to Buds Landing Airport? Find the distance to fly.

From to 10WI

Sunrise and sunset
Times for 09-Feb-2023
 Local
(UTC-6)
 Zulu
(UTC)
Morning civil twilight06:3312:33
Sunrise07:0413:04
Sunset17:1023:10
Evening civil twilight17:4123:41

Current date and time
Zulu (UTC)  09-Feb-2023 09:40:36
Local (UTC-6)  09-Feb-2023 03:40:36
 
METAR
KOCQ 
19nm SE 
090855Z AUTO 00000KT 7SM CLR M02/M02 A2994 RMK AO1 T10171017
KMNM 
24nm E 
090857Z AUTO 34008KT 6SM BR CLR M02/M02 A2995 RMK AO2 SLP164 6//// T10171022 56021 FZRANO PNO $
KEZS 
25nm SW 
715-526-2967
011355Z AUTO 00000KT 10SM CLR M17/M19 A3019 RMK AO2 T11701189
KSUE 
36nm SE 
090856Z AUTO 00000KT 8SM CLR 01/M01 A2995 RMK AO2 SLP145 T00061006 56023 FZRANO
TAF
KGRB 
38nm S 
090520Z 0906/1006 16003KT P6SM -SHSN OVC200 FM091400 03010G17KT 5SM -SHSN OVC035 FM091500 03011G19KT 2SM -SHSN OVC012 FM091800 36016G25KT 3/4SM -SHSN OVC007 FM100000 33014G24KT P6SM -SHSN OVC023 FM100300 32014G24KT P6SM BKN030
NOTAMs
Click for the latest NOTAMs
NOTAMs are issued by the DoD/FAA and will open in a separate window not controlled by AirNav.

 

 
 

Would you like to see your business listed on this page?

 If your business provides an interesting product or service to pilots, flight crews, aircraft, or users of the Buds Landing Airport, you should consider listing it here.  To start the listing process, click on the button below
 
Add a business
 

Other Pages about Buds Landing Airport

Update a link
 
Copyright © AirNav, LLC. All rights reserved. Privacy Policy  Contact